Wetterdaten: Dienstag, 13.09.2016
Datum Zeit Temp. Auen Feucht Auen Luftdruck Regen Richtung Richtung Windben
13.09.2016 00:00 14,9 C 92 % 1017,4 hPa 0,0 mm S 188 0,0 km/h (0 Bft)
13.09.2016 00:05 15,0 C 92 % 1017,5 hPa 0,0 mm S 188 1,6 km/h (1 Bft)
13.09.2016 00:10 15,0 C 93 % 1017,5 hPa 0,0 mm S 188 0,0 km/h (0 Bft)
13.09.2016 00:15 15,1 C 92 % 1017,3 hPa 0,0 mm S 188 1,6 km/h (1 Bft)
13.09.2016 00:20 15,0 C 92 % 1017,4 hPa 0,0 mm S 188 0,0 km/h (0 Bft)
13.09.2016 00:25 14,9 C 92 % 1017,3 hPa 0,0 mm S 188 0,0 km/h (0 Bft)
13.09.2016 00:30 14,9 C 92 % 1017,4 hPa 0,0 mm S 188 0,0 km/h (0 Bft)
13.09.2016 00:35 14,6 C 92 % 1017,3 hPa 0,0 mm S 188 1,6 km/h (1 Bft)
13.09.2016 00:40 14,7 C 93 % 1017,3 hPa 0,0 mm S 188 0,0 km/h (0 Bft)
13.09.2016 00:45 14,9 C 93 % 1017,3 hPa 0,0 mm S 188 1,6 km/h (1 Bft)
13.09.2016 00:50 14,7 C 93 % 1017,2 hPa 0,0 mm S 188 0,0 km/h (0 Bft)
13.09.2016 00:55 14,6 C 93 % 1017,3 hPa 0,0 mm S 188 0,0 km/h (0 Bft)
13.09.2016 01:00 14,7 C 93 % 1017,3 hPa 0,0 mm S 188 1,6 km/h (1 Bft)
13.09.2016 01:05 14,7 C 93 % 1017,2 hPa 0,0 mm S 188 0,0 km/h (0 Bft)
13.09.2016 01:10 14,6 C 93 % 1017,3 hPa 0,0 mm S 188 0,0 km/h (0 Bft)
13.09.2016 01:15 14,5 C 93 % 1017,3 hPa 0,0 mm S 188 0,0 km/h (0 Bft)
13.09.2016 01:20 14,5 C 93 % 1017,4 hPa 0,0 mm S 188 0,0 km/h (0 Bft)
13.09.2016 01:25 14,6 C 93 % 1017,4 hPa 0,0 mm S 188 0,0 km/h (0 Bft)
13.09.2016 01:30 14,4 C 93 % 1017,4 hPa 0,0 mm S 188 0,0 km/h (0 Bft)
13.09.2016 01:35 14,2 C 93 % 1017,3 hPa 0,0 mm S 188 0,0 km/h (0 Bft)
13.09.2016 01:40 14,4 C 93 % 1017,3 hPa 0,0 mm S 188 1,6 km/h (1 Bft)
13.09.2016 01:45 14,4 C 93 % 1017,3 hPa 0,0 mm S 188 0,0 km/h (0 Bft)
13.09.2016 01:50 14,2 C 93 % 1017,3 hPa 0,0 mm S 188 0,0 km/h (0 Bft)
13.09.2016 01:55 14,1 C 93 % 1017,2 hPa 0,0 mm S 188 0,0 km/h (0 Bft)
13.09.2016 02:00 14,2 C 93 % 1017,1 hPa 0,0 mm S-SW 202 4,8 km/h (1 Bft)
13.09.2016 02:05 14,3 C 93 % 1017,1 hPa 0,0 mm S-SW 209 4,8 km/h (1 Bft)
13.09.2016 02:10 14,2 C 93 % 1017,1 hPa 0,0 mm S-SW 209 0,0 km/h (0 Bft)
13.09.2016 02:15 14,1 C 93 % 1017,0 hPa 0,0 mm S-SW 209 0,0 km/h (0 Bft)
13.09.2016 02:20 14,1 C 93 % 1017,0 hPa 0,0 mm S-SW 209 0,0 km/h (0 Bft)
13.09.2016 02:25 13,9 C 93 % 1017,0 hPa 0,0 mm S-SW 209 0,0 km/h (0 Bft)
13.09.2016 02:30 13,9 C 93 % 1016,9 hPa 0,0 mm S-SW 209 1,6 km/h (1 Bft)
13.09.2016 02:35 13,9 C 93 % 1017,0 hPa 0,0 mm S-SW 209 0,0 km/h (0 Bft)
13.09.2016 02:40 13,8 C 93 % 1017,0 hPa 0,0 mm S-SW 209 0,0 km/h (0 Bft)
13.09.2016 02:45 13,7 C 93 % 1017,0 hPa 0,0 mm S-SW 209 0,0 km/h (0 Bft)
13.09.2016 02:50 13,7 C 93 % 1017,0 hPa 0,0 mm S-SW 209 0,0 km/h (0 Bft)
13.09.2016 02:55 13,9 C 93 % 1017,0 hPa 0,0 mm S-SW 209 1,6 km/h (1 Bft)
13.09.2016 03:00 14,1 C 93 % 1017,1 hPa 0,0 mm S-SW 209 1,6 km/h (1 Bft)
13.09.2016 03:05 13,7 C 93 % 1017,1 hPa 0,0 mm S-SW 209 0,0 km/h (0 Bft)
13.09.2016 03:10 13,8 C 93 % 1017,0 hPa 0,0 mm S-SW 209 1,6 km/h (1 Bft)
13.09.2016 03:15 14,1 C 93 % 1017,0 hPa 0,0 mm S-SW 209 3,2 km/h (1 Bft)
13.09.2016 03:20 14,1 C 93 % 1017,0 hPa 0,0 mm S-SW 209 1,6 km/h (1 Bft)
13.09.2016 03:25 14,1 C 93 % 1017,0 hPa 0,0 mm S-SW 209 1,6 km/h (1 Bft)
13.09.2016 03:30 13,9 C 93 % 1017,0 hPa 0,0 mm S-SW 209 0,0 km/h (0 Bft)
13.09.2016 03:35 13,8 C 93 % 1017,0 hPa 0,0 mm S-SW 209 0,0 km/h (0 Bft)
13.09.2016 03:40 13,8 C 93 % 1016,9 hPa 0,0 mm S-SW 209 0,0 km/h (0 Bft)
13.09.2016 03:45 13,7 C 93 % 1016,9 hPa 0,0 mm S-SW 209 0,0 km/h (0 Bft)
13.09.2016 03:50 13,7 C 93 % 1016,9 hPa 0,0 mm S-SW 209 0,0 km/h (0 Bft)
13.09.2016 03:55 13,6 C 93 % 1016,8 hPa 0,0 mm S-SW 209 0,0 km/h (0 Bft)
13.09.2016 04:00 13,5 C 93 % 1016,8 hPa 0,0 mm S-SW 209 0,0 km/h (0 Bft)
13.09.2016 04:05 13,5 C 93 % 1016,8 hPa 0,0 mm S-SW 209 0,0 km/h (0 Bft)
13.09.2016 04:10 13,4 C 93 % 1016,8 hPa 0,0 mm S-SW 209 0,0 km/h (0 Bft)
13.09.2016 04:15 13,3 C 93 % 1016,9 hPa 0,0 mm S-SW 209 0,0 km/h (0 Bft)
13.09.2016 04:20 13,3 C 93 % 1016,9 hPa 0,0 mm S-SW 209 0,0 km/h (0 Bft)
13.09.2016 04:25 13,6 C 93 % 1016,9 hPa 0,0 mm S-SW 209 0,0 km/h (0 Bft)
13.09.2016 04:30 13,6 C 93 % 1017,0 hPa 0,0 mm S-SW 209 1,6 km/h (1 Bft)
13.09.2016 04:35 13,6 C 93 % 1016,9 hPa 0,0 mm S-SW 209 1,6 km/h (1 Bft)
13.09.2016 04:40 13,3 C 93 % 1016,9 hPa 0,0 mm S-SW 209 0,0 km/h (0 Bft)
13.09.2016 04:45 13,2 C 93 % 1016,9 hPa 0,0 mm S-SW 209 0,0 km/h (0 Bft)
13.09.2016 04:50 13,2 C 93 % 1016,9 hPa 0,0 mm S-SW 209 0,0 km/h (0 Bft)
13.09.2016 04:55 13,2 C 93 % 1016,9 hPa 0,0 mm S-SW 209 1,6 km/h (1 Bft)
13.09.2016 05:00 13,3 C 93 % 1016,9 hPa 0,0 mm S-SW 209 0,0 km/h (0 Bft)
13.09.2016 05:05 13,3 C 93 % 1016,9 hPa 0,0 mm S-SW 209 0,0 km/h (0 Bft)
13.09.2016 05:10 13,1 C 93 % 1016,9 hPa 0,0 mm S-SW 209 0,0 km/h (0 Bft)
13.09.2016 05:15 12,8 C 93 % 1016,9 hPa 0,0 mm S-SW 209 0,0 km/h (0 Bft)
13.09.2016 05:20 12,9 C 93 % 1016,9 hPa 0,0 mm S-SW 209 0,0 km/h (0 Bft)
13.09.2016 05:25 12,8 C 93 % 1016,9 hPa 0,0 mm S-SW 209 0,0 km/h (0 Bft)
13.09.2016 05:30 12,9 C 93 % 1016,9 hPa 0,0 mm S-SW 209 0,0 km/h (0 Bft)
13.09.2016 05:35 12,6 C 93 % 1016,8 hPa 0,0 mm S-SW 209 0,0 km/h (0 Bft)
13.09.2016 05:40 12,7 C 93 % 1016,8 hPa 0,0 mm S-SW 209 0,0 km/h (0 Bft)
13.09.2016 05:45 12,6 C 93 % 1016,8 hPa 0,2 mm S-SW 209 0,0 km/h (0 Bft)
13.09.2016 05:50 12,6 C 93 % 1016,8 hPa 0,0 mm S-SW 209 0,0 km/h (0 Bft)
13.09.2016 05:55 12,7 C 93 % 1016,8 hPa 0,0 mm S-SW 209 0,0 km/h (0 Bft)
13.09.2016 06:00 12,7 C 93 % 1016,8 hPa 0,0 mm S-SW 209 0,0 km/h (0 Bft)
13.09.2016 06:05 12,6 C 93 % 1016,7 hPa 0,0 mm S-SW 209 0,0 km/h (0 Bft)
13.09.2016 06:10 12,5 C 93 % 1016,7 hPa 0,0 mm S-SW 209 0,0 km/h (0 Bft)
13.09.2016 06:15 12,4 C 93 % 1016,8 hPa 0,0 mm S-SW 209 0,0 km/h (0 Bft)
13.09.2016 06:20 12,5 C 93 % 1016,8 hPa 0,0 mm S-SW 209 0,0 km/h (0 Bft)
13.09.2016 06:25 12,6 C 93 % 1016,8 hPa 0,0 mm S-SW 209 0,0 km/h (0 Bft)
13.09.2016 06:30 12,5 C 93 % 1016,8 hPa 0,0 mm S-SW 209 0,0 km/h (0 Bft)
13.09.2016 06:35 12,6 C 93 % 1016,8 hPa 0,0 mm S-SW 209 0,0 km/h (0 Bft)
13.09.2016 06:40 12,6 C 93 % 1016,8 hPa 0,0 mm S-SW 209 0,0 km/h (0 Bft)
13.09.2016 06:45 12,4 C 93 % 1016,8 hPa 0,0 mm S-SW 209 0,0 km/h (0 Bft)
13.09.2016 06:50 12,3 C 93 % 1016,9 hPa 0,0 mm S-SW 209 0,0 km/h (0 Bft)
13.09.2016 06:55 12,2 C 94 % 1016,9 hPa 0,0 mm S-SW 209 0,0 km/h (0 Bft)
13.09.2016 07:00 12,3 C 94 % 1016,9 hPa 0,0 mm S-SW 209 0,0 km/h (0 Bft)
13.09.2016 07:05 12,4 C 93 % 1016,9 hPa 0,0 mm S-SW 209 0,0 km/h (0 Bft)
13.09.2016 07:10 12,7 C 94 % 1017,0 hPa 0,0 mm S-SW 209 0,0 km/h (0 Bft)
13.09.2016 07:15 12,8 C 94 % 1016,9 hPa 0,0 mm S-SW 209 0,0 km/h (0 Bft)
13.09.2016 07:20 12,8 C 93 % 1017,0 hPa 0,0 mm S-SW 209 0,0 km/h (0 Bft)
13.09.2016 07:25 13,1 C 94 % 1017,0 hPa 0,0 mm S-SW 209 0,0 km/h (0 Bft)
13.09.2016 07:30 13,3 C 93 % 1017,0 hPa 0,0 mm S-SW 209 0,0 km/h (0 Bft)
13.09.2016 07:35 13,6 C 94 % 1017,0 hPa 0,0 mm S-SW 209 0,0 km/h (0 Bft)
13.09.2016 07:40 13,6 C 93 % 1016,9 hPa 0,0 mm S-SW 209 0,0 km/h (0 Bft)
13.09.2016 07:45 14,0 C 93 % 1017,0 hPa 0,0 mm S-SW 209 0,0 km/h (0 Bft)
13.09.2016 07:50 14,5 C 93 % 1017,0 hPa 0,0 mm S-SW 209 0,0 km/h (0 Bft)
13.09.2016 07:55 14,8 C 93 % 1017,0 hPa 0,0 mm S-SW 209 0,0 km/h (0 Bft)
13.09.2016 08:00 15,2 C 93 % 1017,0 hPa 0,0 mm S-SW 209 0,0 km/h (0 Bft)
13.09.2016 08:05 15,6 C 93 % 1016,9 hPa 0,0 mm S-SW 209 0,0 km/h (0 Bft)
13.09.2016 08:10 16,1 C 93 % 1017,0 hPa 0,0 mm S-SW 209 0,0 km/h (0 Bft)
13.09.2016 08:15 16,4 C 92 % 1017,0 hPa 0,0 mm S-SW 209 0,0 km/h (0 Bft)
13.09.2016 08:20 16,1 C 92 % 1017,0 hPa 0,0 mm S-SW 209 0,0 km/h (0 Bft)
13.09.2016 08:25 16,2 C 92 % 1016,9 hPa 0,0 mm S-SW 209 0,0 km/h (0 Bft)
13.09.2016 08:30 16,6 C 92 % 1016,9 hPa 0,0 mm S-SW 209 0,0 km/h (0 Bft)
13.09.2016 08:35 16,8 C 91 % 1016,9 hPa 0,0 mm S-SW 209 0,0 km/h (0 Bft)
13.09.2016 08:40 17,2 C 91 % 1016,9 hPa 0,0 mm S-SW 209 0,0 km/h (0 Bft)
13.09.2016 08:45 17,3 C 91 % 1016,8 hPa 0,0 mm S-SW 209 0,0 km/h (0 Bft)
13.09.2016 08:50 17,5 C 91 % 1016,8 hPa 0,0 mm S-SW 209 0,0 km/h (0 Bft)
13.09.2016 08:55 17,8 C 90 % 1016,8 hPa 0,0 mm S-SW 209 0,0 km/h (0 Bft)
13.09.2016 09:00 17,9 C 90 % 1016,8 hPa 0,0 mm S-SW 209 0,0 km/h (0 Bft)
13.09.2016 09:05 18,3 C 90 % 1016,8 hPa 0,0 mm S-SW 209 0,0 km/h (0 Bft)
13.09.2016 09:10 18,3 C 90 % 1016,8 hPa 0,0 mm S-SW 209 0,0 km/h (0 Bft)
13.09.2016 09:15 18,4 C 89 % 1016,7 hPa 0,0 mm SO 128 3,2 km/h (1 Bft)
13.09.2016 09:20 18,6 C 89 % 1016,8 hPa 0,0 mm SO 128 3,2 km/h (1 Bft)
13.09.2016 09:25 18,9 C 89 % 1016,7 hPa 0,0 mm SO 128 3,2 km/h (1 Bft)
13.09.2016 09:30 19,0 C 88 % 1016,7 hPa 0,0 mm SO 143 4,8 km/h (1 Bft)
13.09.2016 09:35 19,3 C 87 % 1016,6 hPa 0,0 mm S-SO 148 8,0 km/h (2 Bft)
13.09.2016 09:40 19,6 C 86 % 1016,7 hPa 0,0 mm S-SO 157 6,4 km/h (2 Bft)
13.09.2016 09:45 19,6 C 86 % 1016,7 hPa 0,0 mm S-SO 157 3,2 km/h (1 Bft)
13.09.2016 09:50 19,7 C 85 % 1016,7 hPa 0,0 mm S-SO 157 3,2 km/h (1 Bft)
13.09.2016 09:55 20,1 C 85 % 1016,6 hPa 0,0 mm S-SO 157 1,6 km/h (1 Bft)
13.09.2016 10:00 20,3 C 85 % 1016,7 hPa 0,0 mm S-SO 157 3,2 km/h (1 Bft)
13.09.2016 10:05 20,6 C 82 % 1016,7 hPa 0,0 mm S-SO 157 3,2 km/h (1 Bft)
13.09.2016 10:10 20,6 C 82 % 1016,6 hPa 0,0 mm S-SO 157 3,2 km/h (1 Bft)
13.09.2016 10:15 20,8 C 84 % 1016,6 hPa 0,0 mm S-SO 157 1,6 km/h (1 Bft)
13.09.2016 10:20 21,1 C 81 % 1016,6 hPa 0,0 mm S-SO 157 1,6 km/h (1 Bft)
13.09.2016 10:25 21,1 C 81 % 1016,6 hPa 0,0 mm S-SO 157 3,2 km/h (1 Bft)
13.09.2016 10:30 21,3 C 81 % 1016,6 hPa 0,0 mm S-SO 157 1,6 km/h (1 Bft)
13.09.2016 10:35 21,7 C 82 % 1016,5 hPa 0,0 mm S-SO 157 4,8 km/h (1 Bft)
13.09.2016 10:40 21,9 C 80 % 1016,5 hPa 0,0 mm S-SO 159 4,8 km/h (1 Bft)
13.09.2016 10:45 22,1 C 80 % 1016,5 hPa 0,0 mm S-SO 163 6,4 km/h (2 Bft)
13.09.2016 10:50 22,2 C 81 % 1016,5 hPa 0,0 mm S-SO 155 8,0 km/h (2 Bft)
13.09.2016 10:55 22,2 C 79 % 1016,4 hPa 0,0 mm O-SO 103 6,4 km/h (2 Bft)
13.09.2016 11:00 22,3 C 81 % 1016,4 hPa 0,0 mm SO 143 6,4 km/h (2 Bft)
13.09.2016 11:05 22,4 C 76 % 1016,3 hPa 0,0 mm O-SO 117 6,4 km/h (2 Bft)
13.09.2016 11:10 22,8 C 75 % 1016,3 hPa 0,0 mm SO 134 4,8 km/h (1 Bft)
13.09.2016 11:15 22,9 C 75 % 1016,3 hPa 0,0 mm O-SO 113 6,4 km/h (2 Bft)
13.09.2016 11:20 23,1 C 76 % 1016,3 hPa 0,0 mm O-SO 104 6,4 km/h (2 Bft)
13.09.2016 11:25 23,1 C 75 % 1016,2 hPa 0,0 mm SO 125 4,8 km/h (1 Bft)
13.09.2016 11:30 23,0 C 72 % 1016,2 hPa 0,0 mm SO 130 4,8 km/h (1 Bft)
13.09.2016 11:35 23,1 C 71 % 1016,2 hPa 0,0 mm O-SO 118 8,0 km/h (2 Bft)
13.09.2016 11:40 23,4 C 71 % 1016,1 hPa 0,0 mm O-SO 118 4,8 km/h (1 Bft)
13.09.2016 11:45 23,6 C 74 % 1016,1 hPa 0,0 mm SO 132 6,4 km/h (2 Bft)
13.09.2016 11:50 23,7 C 71 % 1016,0 hPa 0,0 mm SO 130 6,4 km/h (2 Bft)
13.09.2016 11:55 23,9 C 71 % 1016,0 hPa 0,0 mm SO 131 8,0 km/h (2 Bft)
13.09.2016 12:00 24,1 C 72 % 1015,9 hPa 0,0 mm SO 146 8,0 km/h (2 Bft)
13.09.2016 12:05 24,1 C 73 % 1015,9 hPa 0,0 mm SO 131 8,0 km/h (2 Bft)
13.09.2016 12:10 24,2 C 69 % 1015,9 hPa 0,0 mm O 98 6,4 km/h (2 Bft)
13.09.2016 12:15 24,3 C 70 % 1015,9 hPa 0,0 mm SO 138 6,4 km/h (2 Bft)
13.09.2016 12:20 24,6 C 70 % 1015,9 hPa 0,0 mm SO 130 8,0 km/h (2 Bft)
13.09.2016 12:25 24,4 C 71 % 1015,8 hPa 0,0 mm SO 131 8,0 km/h (2 Bft)
13.09.2016 12:30 24,6 C 69 % 1015,8 hPa 0,0 mm O 100 8,0 km/h (2 Bft)
13.09.2016 12:35 24,8 C 69 % 1015,7 hPa 0,0 mm O-NO 76 8,0 km/h (2 Bft)
13.09.2016 12:40 24,9 C 70 % 1015,6 hPa 0,0 mm S-SO 147 8,0 km/h (2 Bft)
13.09.2016 12:45 25,1 C 66 % 1015,6 hPa 0,0 mm O-SO 120 9,7 km/h (2 Bft)
13.09.2016 12:50 24,9 C 70 % 1015,5 hPa 0,0 mm SO 145 8,0 km/h (2 Bft)
13.09.2016 12:55 25,2 C 71 % 1015,4 hPa 0,0 mm O-SO 115 9,7 km/h (2 Bft)
13.09.2016 13:00 25,1 C 70 % 1015,4 hPa 0,0 mm O-SO 121 11,3 km/h (2 Bft)
13.09.2016 13:05 25,1 C 69 % 1015,4 hPa 0,0 mm SO 144 11,3 km/h (2 Bft)
13.09.2016 13:10 25,2 C 71 % 1015,4 hPa 0,0 mm SO 129 12,9 km/h (3 Bft)
13.09.2016 13:15 25,2 C 69 % 1015,3 hPa 0,0 mm O-SO 123 12,9 km/h (3 Bft)
13.09.2016 13:20 25,3 C 69 % 1015,3 hPa 0,0 mm SO 138 11,3 km/h (2 Bft)
13.09.2016 13:25 25,3 C 70 % 1015,2 hPa 0,0 mm O-SO 115 11,3 km/h (2 Bft)
13.09.2016 13:30 25,4 C 68 % 1015,2 hPa 0,0 mm SO 139 9,7 km/h (2 Bft)
13.09.2016 13:35 25,4 C 69 % 1015,2 hPa 0,0 mm SO 126 11,3 km/h (2 Bft)
13.09.2016 13:40 25,6 C 69 % 1015,1 hPa 0,0 mm SO 138 8,0 km/h (2 Bft)
13.09.2016 13:45 25,6 C 68 % 1015,1 hPa 0,0 mm O 90 9,7 km/h (2 Bft)
13.09.2016 13:50 25,5 C 68 % 1015,1 hPa 0,0 mm SO 145 9,7 km/h (2 Bft)
13.09.2016 13:55 25,5 C 73 % 1015,0 hPa 0,0 mm SO 134 11,3 km/h (2 Bft)
13.09.2016 14:00 25,6 C 71 % 1015,0 hPa 0,0 mm O-SO 116 9,7 km/h (2 Bft)
13.09.2016 14:05 25,6 C 70 % 1014,9 hPa 0,0 mm SO 133 11,3 km/h (2 Bft)
13.09.2016 14:10 25,6 C 71 % 1014,8 hPa 0,0 mm SO 135 12,9 km/h (3 Bft)
13.09.2016 14:15 25,8 C 71 % 1014,7 hPa 0,0 mm S-SO 150 9,7 km/h (2 Bft)
13.09.2016 14:20 25,8 C 72 % 1014,8 hPa 0,0 mm O-SO 105 9,7 km/h (2 Bft)
13.09.2016 14:25 25,8 C 70 % 1014,7 hPa 0,0 mm O-SO 120 11,3 km/h (2 Bft)
13.09.2016 14:30 25,9 C 70 % 1014,7 hPa 0,0 mm SO 131 9,7 km/h (2 Bft)
13.09.2016 14:35 25,8 C 70 % 1014,7 hPa 0,0 mm S-SO 152 11,3 km/h (2 Bft)
13.09.2016 14:40 25,9 C 69 % 1014,6 hPa 0,0 mm O-SO 121 9,7 km/h (2 Bft)
13.09.2016 14:45 25,9 C 71 % 1014,6 hPa 0,0 mm SO 138 9,7 km/h (2 Bft)
13.09.2016 14:50 25,8 C 70 % 1014,5 hPa 0,0 mm SO 125 11,3 km/h (2 Bft)
13.09.2016 14:55 25,9 C 70 % 1014,5 hPa 0,0 mm O-SO 106 8,0 km/h (2 Bft)
13.09.2016 15:00 25,9 C 70 % 1014,4 hPa 0,0 mm O-SO 112 11,3 km/h (2 Bft)
13.09.2016 15:05 25,9 C 68 % 1014,4 hPa 0,0 mm SO 128 9,7 km/h (2 Bft)
13.09.2016 15:10 25,9 C 67 % 1014,4 hPa 0,0 mm S-SO 161 9,7 km/h (2 Bft)
13.09.2016 15:15 25,9 C 70 % 1014,3 hPa 0,0 mm S-SO 147 11,3 km/h (2 Bft)
13.09.2016 15:20 25,8 C 69 % 1014,3 hPa 0,0 mm S-SO 150 11,3 km/h (2 Bft)
13.09.2016 15:25 25,9 C 71 % 1014,2 hPa 0,0 mm O-SO 119 12,9 km/h (3 Bft)
13.09.2016 15:30 25,9 C 68 % 1014,2 hPa 0,0 mm SO 144 12,9 km/h (3 Bft)
13.09.2016 15:35 25,8 C 70 % 1014,2 hPa 0,0 mm SO 126 14,5 km/h (3 Bft)
13.09.2016 15:40 25,8 C 69 % 1014,2 hPa 0,0 mm O-SO 123 14,5 km/h (3 Bft)
13.09.2016 15:45 25,8 C 70 % 1014,1 hPa 0,0 mm S-SO 151 11,3 km/h (2 Bft)
13.09.2016 15:50 25,8 C 71 % 1014,2 hPa 0,0 mm O-SO 109 12,9 km/h (3 Bft)
13.09.2016 15:55 25,7 C 72 % 1014,1 hPa 0,0 mm SO 134 9,7 km/h (2 Bft)
13.09.2016 16:00 25,7 C 70 % 1014,1 hPa 0,0 mm O-SO 115 14,5 km/h (3 Bft)
13.09.2016 16:05 25,7 C 71 % 1014,1 hPa 0,0 mm O 96 11,3 km/h (2 Bft)
13.09.2016 16:10 25,6 C 71 % 1014,1 hPa 0,0 mm S-SO 157 12,9 km/h (3 Bft)
13.09.2016 16:15 25,6 C 73 % 1014,1 hPa 0,0 mm O-SO 113 11,3 km/h (2 Bft)
13.09.2016 16:20 25,6 C 72 % 1014,0 hPa 0,0 mm O-SO 121 12,9 km/h (3 Bft)
13.09.2016 16:25 25,6 C 71 % 1013,9 hPa 0,0 mm SO 128 9,7 km/h (2 Bft)
13.09.2016 16:30 25,4 C 71 % 1013,9 hPa 0,0 mm O-NO 66 12,9 km/h (3 Bft)
13.09.2016 16:35 25,4 C 68 % 1013,9 hPa 0,0 mm O-NO 70 11,3 km/h (2 Bft)
13.09.2016 16:40 25,4 C 68 % 1013,9 hPa 0,0 mm O 99 9,7 km/h (2 Bft)
13.09.2016 16:45 25,4 C 71 % 1013,9 hPa 0,0 mm O 98 9,7 km/h (2 Bft)
13.09.2016 16:50 25,3 C 67 % 1013,8 hPa 0,0 mm O-SO 109 12,9 km/h (3 Bft)
13.09.2016 16:55 25,3 C 65 % 1013,8 hPa 0,0 mm O-NO 74 11,3 km/h (2 Bft)
13.09.2016 17:00 25,3 C 66 % 1013,8 hPa 0,0 mm O-NO 71 11,3 km/h (2 Bft)
13.09.2016 17:05 25,2 C 68 % 1013,8 hPa 0,0 mm O-NO 71 8,0 km/h (2 Bft)
13.09.2016 17:10 25,3 C 67 % 1013,7 hPa 0,0 mm O-NO 73 11,3 km/h (2 Bft)
13.09.2016 17:15 25,2 C 65 % 1013,7 hPa 0,0 mm O-NO 65 16,1 km/h (3 Bft)
13.09.2016 17:20 25,1 C 69 % 1013,7 hPa 0,0 mm O-SO 115 9,7 km/h (2 Bft)
13.09.2016 17:25 24,9 C 68 % 1013,7 hPa 0,0 mm SO 128 9,7 km/h (2 Bft)
13.09.2016 17:30 24,8 C 67 % 1013,6 hPa 0,0 mm O 98 11,3 km/h (2 Bft)
13.09.2016 17:35 24,8 C 67 % 1013,6 hPa 0,0 mm O-NO 65 11,3 km/h (2 Bft)
13.09.2016 17:40 24,7 C 68 % 1013,6 hPa 0,0 mm O-SO 109 11,3 km/h (2 Bft)
13.09.2016 17:45 24,5 C 70 % 1013,6 hPa 0,0 mm O 88 6,4 km/h (2 Bft)
13.09.2016 17:50 24,4 C 71 % 1013,6 hPa 0,0 mm O-NO 75 9,7 km/h (2 Bft)
13.09.2016 17:55 24,3 C 72 % 1013,5 hPa 0,0 mm O-SO 102 8,0 km/h (2 Bft)
13.09.2016 18:00 24,0 C 73 % 1013,5 hPa 0,0 mm O-SO 117 4,8 km/h (1 Bft)
13.09.2016 18:05 23,8 C 74 % 1013,5 hPa 0,0 mm S-SO 150 3,2 km/h (1 Bft)
13.09.2016 18:10 23,6 C 75 % 1013,5 hPa 0,0 mm SO 132 4,8 km/h (1 Bft)
13.09.2016 18:15 23,5 C 75 % 1013,5 hPa 0,0 mm SO 132 4,8 km/h (1 Bft)
13.09.2016 18:20 23,3 C 76 % 1013,5 hPa 0,0 mm SO 132 1,6 km/h (1 Bft)
13.09.2016 18:25 23,1 C 76 % 1013,5 hPa 0,0 mm SO 132 1,6 km/h (1 Bft)
13.09.2016 18:30 22,9 C 77 % 1013,5 hPa 0,0 mm SO 132 1,6 km/h (1 Bft)
13.09.2016 18:35 22,8 C 78 % 1013,4 hPa 0,0 mm SO 132 0,0 km/h (0 Bft)
13.09.2016 18:40 22,6 C 79 % 1013,4 hPa 0,0 mm SO 132 0,0 km/h (0 Bft)
13.09.2016 18:45 22,5 C 78 % 1013,3 hPa 0,0 mm SO 132 0,0 km/h (0 Bft)
13.09.2016 18:50 22,3 C 80 % 1013,4 hPa 0,0 mm SO 132 0,0 km/h (0 Bft)
13.09.2016 18:55 21,9 C 82 % 1013,4 hPa 0,0 mm SO 132 0,0 km/h (0 Bft)
13.09.2016 19:00 21,7 C 82 % 1013,3 hPa 0,0 mm SO 132 0,0 km/h (0 Bft)
13.09.2016 19:05 21,3 C 82 % 1013,3 hPa 0,0 mm SO 132 0,0 km/h (0 Bft)
13.09.2016 19:10 20,8 C 84 % 1013,3 hPa 0,0 mm SO 132 0,0 km/h (0 Bft)
13.09.2016 19:15 20,5 C 85 % 1013,2 hPa 0,0 mm SO 132 0,0 km/h (0 Bft)
13.09.2016 19:20 20,3 C 84 % 1013,3 hPa 0,0 mm SO 132 0,0 km/h (0 Bft)
13.09.2016 19:25 20,3 C 84 % 1013,3 hPa 0,0 mm SO 132 0,0 km/h (0 Bft)
13.09.2016 19:30 20,1 C 84 % 1013,3 hPa 0,0 mm SO 132 0,0 km/h (0 Bft)
13.09.2016 19:35 19,7 C 84 % 1013,3 hPa 0,0 mm SO 132 0,0 km/h (0 Bft)
13.09.2016 19:40 19,6 C 85 % 1013,4 hPa 0,0 mm SO 132 0,0 km/h (0 Bft)
13.09.2016 19:45 19,3 C 84 % 1013,4 hPa 0,0 mm SO 132 0,0 km/h (0 Bft)
13.09.2016 19:50 18,9 C 86 % 1013,5 hPa 0,0 mm SO 132 0,0 km/h (0 Bft)
13.09.2016 19:55 18,7 C 87 % 1013,5 hPa 0,0 mm SO 132 0,0 km/h (0 Bft)
13.09.2016 20:00 18,6 C 87 % 1013,4 hPa 0,0 mm SO 132 0,0 km/h (0 Bft)
13.09.2016 20:05 18,1 C 86 % 1013,4 hPa 0,0 mm SO 132 0,0 km/h (0 Bft)
13.09.2016 20:10 17,9 C 88 % 1013,4 hPa 0,0 mm SO 132 0,0 km/h (0 Bft)
13.09.2016 20:15 17,8 C 88 % 1013,4 hPa 0,0 mm SO 132 0,0 km/h (0 Bft)
13.09.2016 20:20 17,6 C 89 % 1013,5 hPa 0,0 mm SO 132 0,0 km/h (0 Bft)
13.09.2016 20:25 17,7 C 89 % 1013,6 hPa 0,0 mm SO 132 0,0 km/h (0 Bft)
13.09.2016 20:30 17,6 C 89 % 1013,5 hPa 0,0 mm SO 132 0,0 km/h (0 Bft)
13.09.2016 20:35 17,5 C 89 % 1013,5 hPa 0,0 mm SO 132 0,0 km/h (0 Bft)
13.09.2016 20:40 17,2 C 90 % 1013,6 hPa 0,0 mm SO 132 0,0 km/h (0 Bft)
13.09.2016 20:45 17,2 C 90 % 1013,6 hPa 0,0 mm SO 132 0,0 km/h (0 Bft)
13.09.2016 20:50 17,2 C 90 % 1013,6 hPa 0,0 mm SO 132 0,0 km/h (0 Bft)
13.09.2016 20:55 17,1 C 90 % 1013,6 hPa 0,0 mm SO 132 0,0 km/h (0 Bft)
13.09.2016 21:00 16,9 C 90 % 1013,6 hPa 0,0 mm SO 132 0,0 km/h (0 Bft)
13.09.2016 21:05 16,9 C 90 % 1013,6 hPa 0,0 mm SO 132 0,0 km/h (0 Bft)
13.09.2016 21:10 16,9 C 91 % 1013,7 hPa 0,0 mm S-SW 199 0,0 km/h (0 Bft)
13.09.2016 21:15 16,9 C 91 % 1013,6 hPa 0,0 mm S-SW 199 0,0 km/h (0 Bft)
13.09.2016 21:20 16,9 C 90 % 1013,7 hPa 0,0 mm S-SW 199 0,0 km/h (0 Bft)
13.09.2016 21:25 16,8 C 90 % 1013,6 hPa 0,0 mm S-SW 199 0,0 km/h (0 Bft)
13.09.2016 21:30 16,6 C 91 % 1013,6 hPa 0,0 mm S-SW 199 0,0 km/h (0 Bft)
13.09.2016 21:35 16,5 C 91 % 1013,6 hPa 0,0 mm S-SW 199 0,0 km/h (0 Bft)
13.09.2016 21:40 16,3 C 91 % 1013,6 hPa 0,0 mm S-SW 199 0,0 km/h (0 Bft)
13.09.2016 21:45 16,3 C 91 % 1013,5 hPa 0,0 mm S-SW 199 0,0 km/h (0 Bft)
13.09.2016 21:50 16,2 C 91 % 1013,6 hPa 0,0 mm S-SW 199 0,0 km/h (0 Bft)
13.09.2016 21:55 16,2 C 92 % 1013,6 hPa 0,0 mm S-SW 199 0,0 km/h (0 Bft)
13.09.2016 22:00 16,5 C 92 % 1013,5 hPa 0,0 mm S-SW 199 0,0 km/h (0 Bft)
13.09.2016 22:05 16,4 C 91 % 1013,5 hPa 0,0 mm S-SW 199 0,0 km/h (0 Bft)
13.09.2016 22:10 16,2 C 91 % 1013,6 hPa 0,0 mm S-SW 199 0,0 km/h (0 Bft)
13.09.2016 22:15 16,1 C 91 % 1013,6 hPa 0,0 mm S-SW 199 0,0 km/h (0 Bft)
13.09.2016 22:20 16,0 C 91 % 1013,6 hPa 0,0 mm S-SW 199 0,0 km/h (0 Bft)
13.09.2016 22:25 15,8 C 92 % 1013,6 hPa 0,0 mm S-SW 199 0,0 km/h (0 Bft)
13.09.2016 22:30 15,8 C 92 % 1013,6 hPa 0,0 mm S-SW 199 0,0 km/h (0 Bft)
13.09.2016 22:35 15,9 C 92 % 1013,6 hPa 0,0 mm S-SW 199 0,0 km/h (0 Bft)
13.09.2016 22:40 15,8 C 92 % 1013,6 hPa 0,0 mm S-SW 199 0,0 km/h (0 Bft)
13.09.2016 22:45 15,5 C 92 % 1013,6 hPa 0,0 mm S-SW 199 0,0 km/h (0 Bft)
13.09.2016 22:50 15,6 C 92 % 1013,6 hPa 0,0 mm S-SW 199 0,0 km/h (0 Bft)
13.09.2016 22:55 15,4 C 92 % 1013,6 hPa 0,0 mm S-SW 199 0,0 km/h (0 Bft)
13.09.2016 23:00 15,4 C 92 % 1013,5 hPa 0,0 mm S-SW 199 0,0 km/h (0 Bft)
13.09.2016 23:05 15,3 C 92 % 1013,6 hPa 0,0 mm S-SW 199 0,0 km/h (0 Bft)
13.09.2016 23:10 15,4 C 92 % 1013,5 hPa 0,0 mm S-SW 199 0,0 km/h (0 Bft)
13.09.2016 23:15 15,3 C 92 % 1013,4 hPa 0,0 mm S-SW 199 0,0 km/h (0 Bft)
13.09.2016 23:20 15,1 C 92 % 1013,4 hPa 0,0 mm S-SW 199 0,0 km/h (0 Bft)
13.09.2016 23:25 15,1 C 93 % 1013,4 hPa 0,0 mm S-SW 199 0,0 km/h (0 Bft)
13.09.2016 23:30 15,1 C 93 % 1013,4 hPa 0,0 mm S-SW 199 0,0 km/h (0 Bft)
13.09.2016 23:35 15,2 C 93 % 1013,4 hPa 0,0 mm S-SW 199 0,0 km/h (0 Bft)
13.09.2016 23:40 15,1 C 93 % 1013,3 hPa 0,0 mm S-SW 199 0,0 km/h (0 Bft)
13.09.2016 23:45 15,1 C 93 % 1013,3 hPa 0,0 mm S-SW 199 0,0 km/h (0 Bft)
13.09.2016 23:50 14,4 C 92 % 1013,3 hPa 0,0 mm S-SW 199 0,0 km/h (0 Bft)
13.09.2016 23:55 14,3 C 93 % 1013,3 hPa 0,0 mm S-SW 199 0,0 km/h (0 Bft)
_ Min-Zeit 06:55 16:55 19:15 - - - 00:00
Minimum _ 12,2 C 65 % 1013,2 hPa - - - 0,0 km/h (0 Bft)
_ Max-Zeit 15:00 06:55 00:05 05:45 - - 17:15
Maximum _ 26,0 C 94 % 1017,5 hPa 0,2 mm - - 16,1 km/h
N-NO (3 Bft)
Durchschnitt _ 18,7 C 84 % 1015,5 hPa #0,2 mm S-SW - 3,4 km/h (1 Bft)